This is the latest recevied weather packets stored in our database for station/object S51UL-6. If no packets are shown the sender has not sent any weather packets the latest 10 day(s).
| Time | Temp. | Humidity | Pressure | Rain* | Wind** | Luminosity | Snow |
|---|---|---|---|---|---|---|---|
| 1787396658 | 22.78° C | 69% | 1017.3 hPa | 1.52 mm | - | - | - |
| 1787395457 | 22.78° C | 68% | 1017.3 hPa | 1.52 mm | - | - | - |
| 1787395159 | 23.33° C | 68% | 1017.3 hPa | 1.02 mm | - | - | - |
| 1787394858 | 23.33° C | 68% | 1017.3 hPa | 1.52 mm | - | - | - |
| 1787394258 | 23.33° C | 68% | 1017.2 hPa | 2.03 mm | - | - | - |
| 1787393058 | 22.78° C | 68% | 1016.9 hPa | 4.57 mm | - | - | - |
| 1787392759 | 22.78° C | 69% | 1016.9 hPa | 4.57 mm | - | - | - |
| 1787391558 | 21.67° C | 70% | 1017 hPa | 3.56 mm | - | - | - |
| 1787390961 | 21.67° C | 71% | 1017 hPa | 3.05 mm | - | - | - |
| 1787390659 | 21.67° C | 71% | 1016.9 hPa | 2.03 mm | - | - | - |
| 1787390359 | 21.67° C | 71% | 1016.8 hPa | 2.54 mm | - | - | - |
| 1787390059 | 22.22° C | 70% | 1016.9 hPa | 2.03 mm | - | - | - |
| 1787389759 | 22.22° C | 70% | 1016.8 hPa | 2.03 mm | - | - | - |
| 1787389159 | 22.22° C | 69% | 1016.8 hPa | 1.52 mm | - | - | - |
| 1787387959 | 23.33° C | 68% | 1016.8 hPa | 1.52 mm | - | - | - |
| 1787387661 | 23.33° C | 70% | 1016.7 hPa | 1.52 mm | - | - | - |
| 1787387359 | 22.78° C | 71% | 1016.7 hPa | 1.52 mm | - | - | - |
| 1787386759 | 21.67° C | 76% | 1016.5 hPa | 1.02 mm | - | - | - |
| 1787386459 | 21.67° C | 76% | 1016.5 hPa | 1.02 mm | - | - | - |
| 1787386160 | 21.67° C | 77% | 1016.4 hPa | 1.02 mm | - | - | - |
| 1787384960 | 21.67° C | 80% | 1016.4 hPa | 1.02 mm | - | - | - |
| 1787384659 | 21.67° C | 81% | 1016.5 hPa | 1.02 mm | - | - | - |
| 1787384059 | 21.11° C | 83% | 1016.5 hPa | 1.02 mm | - | - | - |
| 1787383160 | 20.56° C | 84% | 1016.2 hPa | 1.02 mm | - | - | - |
| 1787382260 | 20° C | 85% | 1016.1 hPa | 1.52 mm | - | - | - |
* Rain latest hour (hover to see other rain measurements)
** Current wind speed in m/s (hover to see current wind gust speed)